createdAt,value
2022-08-09T00:01:24.748Z,100588.79
2022-08-09T00:04:10.415Z,100590.08
2022-08-09T00:06:27.971Z,100590.08
2022-08-09T00:08:57.709Z,100589.55
2022-08-09T00:11:54.950Z,100589.94
2022-08-09T00:13:57.640Z,100591.38
2022-08-09T00:16:36.379Z,100587.19
2022-08-09T00:18:57.599Z,100587.19
2022-08-09T00:21:27.714Z,100598.26
2022-08-09T00:23:59.758Z,100587.53
2022-08-09T00:26:33.016Z,100586.13
2022-08-09T00:29:02.814Z,100586.61
2022-08-09T00:31:58.438Z,100586.61
2022-08-09T00:34:03.516Z,100585.61
2022-08-09T00:36:32.840Z,100591.27
2022-08-09T00:39:02.057Z,100591.27
2022-08-09T00:44:14.087Z,100587.36
2022-08-09T00:44:16.634Z,100588.47
2022-08-09T00:46:56.549Z,100584.39
2022-08-09T00:49:05.671Z,100575.94
2022-08-09T00:51:54.094Z,100580.14
2022-08-09T00:54:05.830Z,100574.02
2022-08-09T00:56:34.995Z,100574.02
2022-08-09T00:59:04.305Z,100577.75
2022-08-09T01:01:44.213Z,100575.17
2022-08-09T01:04:29.316Z,100575.17
2022-08-09T01:07:37.562Z,100571.81
2022-08-09T01:10:14.236Z,100575.48
2022-08-09T01:13:07.418Z,100575.48
2022-08-09T01:15:41.104Z,100580.28
2022-08-09T01:18:14.321Z,100583.09
2022-08-09T01:21:06.089Z,100573.45
2022-08-09T01:24:01.013Z,100573.45
2022-08-09T01:26:52.923Z,100575.58
2022-08-09T01:29:28.569Z,100574.45
2022-08-09T01:32:32.181Z,100575.13
2022-08-09T01:34:35.519Z,100577.58
2022-08-09T01:37:09.266Z,100579.84
2022-08-09T01:39:41.782Z,100579.84
2022-08-09T01:42:12.331Z,100583.15
2022-08-09T01:44:43.311Z,100580.35
2022-08-09T01:47:14.871Z,100579.75
2022-08-09T01:49:48.875Z,100578.20
2022-08-09T01:52:20.535Z,100582.31
2022-08-09T01:54:52.643Z,100578.78
2022-08-09T01:57:27.358Z,100583.89
2022-08-09T02:00:08.906Z,100572.27
2022-08-09T02:02:36.617Z,100587.16
2022-08-09T02:05:15.493Z,100579.75
2022-08-09T02:08:35.571Z,100581.73
2022-08-09T02:10:29.778Z,100591.66
2022-08-09T02:12:52.150Z,100589.84
2022-08-09T02:15:24.645Z,100582.22
2022-08-09T02:18:09.523Z,100593.53
2022-08-09T02:20:32.803Z,100593.53
2022-08-09T02:23:09.796Z,100593.97
2022-08-09T02:25:49.596Z,100593.97
2022-08-09T02:28:17.722Z,100591.95
2022-08-09T02:30:52.857Z,100597.48
2022-08-09T02:33:37.836Z,100597.48
2022-08-09T02:36:01.238Z,100599.90
2022-08-09T02:38:39.801Z,100608.53
2022-08-09T02:41:16.164Z,100604.05
2022-08-09T02:43:55.047Z,100604.05
2022-08-09T02:46:19.910Z,100606.37
2022-08-09T02:48:51.427Z,100601.33
2022-08-09T02:51:24.229Z,100608.78
2022-08-09T02:54:00.323Z,100602.25
2022-08-09T02:56:31.034Z,100608.14
2022-08-09T02:59:02.879Z,100609.05
2022-08-09T03:01:43.147Z,100613.30
2022-08-09T03:04:16.525Z,100617.70
2022-08-09T03:06:41.628Z,100617.70
2022-08-09T03:09:14.501Z,100617.39
2022-08-09T03:12:06.163Z,100619.70
2022-08-09T03:14:16.298Z,100616.06
2022-08-09T03:16:48.136Z,100621.62
2022-08-09T03:19:52.795Z,100615.06
2022-08-09T03:21:52.684Z,100626.50
2022-08-09T03:24:31.387Z,100623.46
2022-08-09T03:26:53.813Z,100623.46
2022-08-09T03:29:24.745Z,100623.56
2022-08-09T03:31:59.912Z,100628.66
2022-08-09T03:34:27.488Z,100624.88
2022-08-09T03:36:59.741Z,100624.88
2022-08-09T03:39:37.930Z,100628.55
2022-08-09T03:42:06.689Z,100628.55
2022-08-09T03:44:32.098Z,100640.05
2022-08-09T03:47:01.358Z,100628.94
2022-08-09T03:49:35.647Z,100628.94
2022-08-09T03:52:04.366Z,100625.64
2022-08-09T03:54:41.262Z,100634.77
2022-08-09T03:57:20.351Z,100642.09
2022-08-09T03:59:54.141Z,100639.69
2022-08-09T04:02:15.284Z,100630.48
2022-08-09T04:04:46.404Z,100637.58
2022-08-09T04:07:17.795Z,100633.49
2022-08-09T04:09:50.244Z,100633.49
2022-08-09T04:12:30.503Z,100635.10
2022-08-09T04:15:02.130Z,100643.30
2022-08-09T04:17:25.028Z,100633.49
2022-08-09T04:19:56.138Z,100636.01
2022-08-09T04:22:25.115Z,100636.01
2022-08-09T04:24:55.894Z,100645.09
2022-08-09T04:27:24.978Z,100647.57
2022-08-09T04:29:54.179Z,100649.12
2022-08-09T04:32:31.365Z,100654.76
2022-08-09T04:34:57.512Z,100653.86
2022-08-09T04:37:24.937Z,100652.73
2022-08-09T04:39:55.784Z,100652.73
2022-08-09T04:42:29.486Z,100656.59
2022-08-09T04:44:58.473Z,100655.52
2022-08-09T04:47:45.221Z,100655.52
2022-08-09T04:50:00.561Z,100653.35
2022-08-09T04:52:30.992Z,100647.50
2022-08-09T04:55:07.264Z,100644.47
2022-08-09T04:57:58.367Z,100644.47
2022-08-09T05:00:06.120Z,100647.64
2022-08-09T05:02:36.993Z,100644.73
2022-08-09T05:05:09.853Z,100647.52
2022-08-09T05:07:37.542Z,100646.43
2022-08-09T05:10:08.685Z,100646.43
2022-08-09T05:12:37.896Z,100645.61
2022-08-09T05:15:11.817Z,100646.81
2022-08-09T05:18:38.168Z,100646.81
2022-08-09T05:20:11.469Z,100639.67
2022-08-09T05:23:54.120Z,100646.08
2022-08-09T05:25:12.137Z,100646.08
2022-08-09T05:27:45.385Z,100646.89
2022-08-09T05:30:14.452Z,100650.70
2022-08-09T05:32:50.650Z,100650.70
2022-08-09T05:35:16.638Z,100652.28
2022-08-09T05:37:47.619Z,100652.28
2022-08-09T05:40:16.952Z,100649.37
2022-08-09T05:42:47.751Z,100652.73
2022-08-09T05:45:16.925Z,100652.73
2022-08-09T05:47:52.958Z,100644.18
2022-08-09T05:50:35.004Z,100643.70
2022-08-09T05:52:53.353Z,100643.70
2022-08-09T05:55:20.590Z,100640.87
2022-08-09T05:57:57.546Z,100635.19
2022-08-09T06:00:24.468Z,100645.34
2022-08-09T06:02:56.776Z,100637.59
2022-08-09T06:05:49.978Z,100637.59
2022-08-09T06:08:05.329Z,100641.47
2022-08-09T06:10:41.765Z,100641.47
2022-08-09T06:13:20.169Z,100640.61
2022-08-09T06:15:44.074Z,100640.61
2022-08-09T06:18:15.703Z,100643.84
2022-08-09T06:20:49.814Z,100636.63
2022-08-09T06:23:15.847Z,100640.67
2022-08-09T06:25:45.441Z,100640.67
2022-08-09T06:28:16.186Z,100638.20
2022-08-09T06:30:45.284Z,100644.72
2022-08-09T06:33:39.939Z,100639.30
2022-08-09T06:35:57.214Z,100638.08
2022-08-09T06:38:17.894Z,100638.08
2022-08-09T06:40:49.098Z,100631.88
2022-08-09T06:43:20.101Z,100634.25
2022-08-09T06:46:04.663Z,100628.77
2022-08-09T06:48:30.258Z,100640.08
2022-08-09T06:50:50.983Z,100627.22
2022-08-09T06:53:20.682Z,100627.22
2022-08-09T06:55:50.346Z,100633.30
2022-08-09T06:58:40.609Z,100633.30
2022-08-09T07:00:58.719Z,100631.37
2022-08-09T07:03:28.650Z,100631.61
2022-08-09T07:06:02.901Z,100632.31
2022-08-09T07:08:22.919Z,100632.31
2022-08-09T07:10:54.084Z,100639.66
2022-08-09T07:13:28.112Z,100639.66
2022-08-09T07:16:41.317Z,100644.41
2022-08-09T07:18:24.903Z,100634.63
2022-08-09T07:20:55.673Z,100637.13
2022-08-09T07:23:24.775Z,100632.87
2022-08-09T07:26:02.259Z,100639.02
2022-08-09T07:28:28.288Z,100639.02
2022-08-09T07:30:57.782Z,100639.43
2022-08-09T07:33:27.081Z,100639.43
2022-08-09T07:35:57.830Z,100637.98
2022-08-09T07:38:31.031Z,100634.74
2022-08-09T07:41:11.605Z,100636.52
2022-08-09T07:43:29.408Z,100632.48
2022-08-09T07:46:01.811Z,100634.75
2022-08-09T07:48:30.737Z,100634.56
2022-08-09T07:51:09.619Z,100635.92
2022-08-09T07:54:04.291Z,100633.66
2022-08-09T07:56:06.594Z,100633.66
2022-08-09T07:58:35.963Z,100634.75
2022-08-09T08:01:06.786Z,100622.36
2022-08-09T08:03:36.920Z,100630.67
2022-08-09T08:06:06.839Z,100630.67
2022-08-09T08:09:01.124Z,100627.73
2022-08-09T08:12:11.194Z,100624.97
2022-08-09T08:13:44.924Z,100624.97
2022-08-09T08:16:29.826Z,100629.09
2022-08-09T08:18:40.961Z,100628.91
2022-08-09T08:21:11.751Z,100622.62
2022-08-09T08:23:41.050Z,100620.39
2022-08-09T08:26:11.515Z,100621.02
2022-08-09T08:28:40.981Z,100619.00
2022-08-09T08:31:14.384Z,100616.76
2022-08-09T08:33:53.336Z,100617.35
2022-08-09T08:36:11.962Z,100625.92
2022-08-09T08:38:42.809Z,100608.20
2022-08-09T08:41:14.107Z,100608.20
2022-08-09T08:43:44.481Z,100620.55
2022-08-09T08:46:33.052Z,100620.55
2022-08-09T08:48:51.190Z,100619.83
2022-08-09T08:51:19.243Z,100619.83
2022-08-09T08:54:02.985Z,100617.25
2022-08-09T08:56:25.094Z,100605.94
2022-08-09T08:58:53.004Z,100605.94
2022-08-09T09:01:24.857Z,100603.40
2022-08-09T09:03:54.011Z,100603.40
2022-08-09T09:06:25.305Z,100604.70
2022-08-09T09:08:59.804Z,100609.39
2022-08-09T09:11:30.143Z,100594.27
2022-08-09T09:14:03.313Z,100604.70
2022-08-09T09:16:35.795Z,100604.70
2022-08-09T09:19:22.537Z,100603.59
2022-08-09T09:21:58.352Z,100605.10
2022-08-09T09:24:33.729Z,100598.30
2022-08-09T09:27:05.316Z,100597.31
2022-08-09T09:30:08.616Z,100589.06
2022-08-09T09:32:15.452Z,100588.98
2022-08-09T09:34:44.727Z,100594.38
2022-08-09T09:37:16.395Z,100596.65
2022-08-09T09:39:54.744Z,100596.07
2022-08-09T09:42:27.896Z,100582.25
2022-08-09T09:45:05.373Z,100582.25
2022-08-09T09:47:42.154Z,100580.22
2022-08-09T09:50:14.614Z,100586.34
2022-08-09T09:52:40.236Z,100586.34
2022-08-09T09:55:28.491Z,100586.26
2022-08-09T09:58:04.373Z,100584.05
2022-08-09T10:00:26.766Z,100577.89
2022-08-09T10:02:56.236Z,100585.32
2022-08-09T10:05:27.100Z,100577.73
2022-08-09T10:08:18.251Z,100577.70
2022-08-09T10:10:38.250Z,100574.11
2022-08-09T10:13:10.119Z,100574.11
2022-08-09T10:16:55.589Z,100578.76
2022-08-09T10:18:21.771Z,100580.39
2022-08-09T10:20:53.214Z,100573.47
2022-08-09T10:23:28.191Z,100566.63
2022-08-09T10:26:06.307Z,100566.63
2022-08-09T10:28:28.688Z,100563.53
2022-08-09T10:34:10.655Z,100565.87
2022-08-09T10:36:02.333Z,100562.23
2022-08-09T10:38:34.456Z,100562.23
2022-08-09T10:41:02.558Z,100563.44
2022-08-09T10:43:36.069Z,100561.19
2022-08-09T10:46:05.817Z,100551.16
2022-08-09T10:48:47.802Z,100551.16
2022-08-09T10:51:29.777Z,100549.76
2022-08-09T10:54:05.188Z,100550.78
2022-08-09T10:56:37.137Z,100546.75
2022-08-09T10:59:31.587Z,100542.54
2022-08-09T11:03:13.479Z,100542.54
2022-08-09T11:04:33.264Z,100538.91
2022-08-09T11:07:05.416Z,100540.35
2022-08-09T11:09:47.695Z,100540.35
2022-08-09T11:12:26.437Z,100544.77
2022-08-09T11:15:04.962Z,100548.16
2022-08-09T11:17:41.741Z,100539.27
2022-08-09T11:20:22.196Z,100530.80
2022-08-09T11:22:57.237Z,100530.80
2022-08-09T11:25:44.975Z,100528.86
2022-08-09T11:28:19.560Z,100524.63
2022-08-09T11:30:38.463Z,100531.95
2022-08-09T11:33:22.391Z,100520.02
2022-08-09T11:35:58.145Z,100519.30
2022-08-09T11:38:41.370Z,100526.59
2022-08-09T11:41:16.712Z,100526.59
2022-08-09T11:43:52.225Z,100521.31
2022-08-09T11:46:33.163Z,100520.44
2022-08-09T11:48:56.607Z,100508.45
2022-08-09T11:52:49.482Z,100508.45
2022-08-09T11:54:28.284Z,100507.70
2022-08-09T11:56:50.499Z,100508.16
2022-08-09T11:59:30.693Z,100506.11
2022-08-09T12:02:16.397Z,100506.11
2022-08-09T12:04:37.585Z,100504.00
2022-08-09T12:07:01.937Z,100504.00
2022-08-09T12:09:33.605Z,100504.01
2022-08-09T12:12:12.217Z,100501.64
2022-08-09T12:14:58.966Z,100495.53
2022-08-09T12:17:27.850Z,100495.53
2022-08-09T12:19:46.568Z,100486.09
2022-08-09T12:22:20.525Z,100486.09
2022-08-09T12:24:49.574Z,100493.39
2022-08-09T12:28:59.334Z,100491.00
2022-08-09T12:30:01.810Z,100491.00
2022-08-09T12:32:29.063Z,100480.73
2022-08-09T12:35:12.458Z,100481.20
2022-08-09T12:37:49.790Z,100479.26
2022-08-09T12:40:13.738Z,100486.19
2022-08-09T12:42:50.454Z,100483.34
2022-08-09T12:45:33.199Z,100477.83
2022-08-09T12:47:53.328Z,100483.84
2022-08-09T12:50:23.516Z,100472.42
2022-08-09T12:53:17.716Z,100488.73
2022-08-09T12:56:14.375Z,100481.14
2022-08-09T12:58:06.123Z,100476.45
2022-08-09T13:00:42.326Z,100476.45
2022-08-09T13:03:24.416Z,100474.27
2022-08-09T13:06:11.310Z,100478.44
2022-08-09T13:08:39.741Z,100478.44
2022-08-09T13:11:01.090Z,100474.55
2022-08-09T13:14:43.786Z,100474.55
2022-08-09T13:16:15.194Z,100470.74
2022-08-09T13:18:48.556Z,100472.22
2022-08-09T13:22:37.160Z,100470.70
2022-08-09T13:24:41.960Z,100470.70
2022-08-09T13:26:43.371Z,100471.22
2022-08-09T13:29:16.861Z,100474.14
2022-08-09T13:32:20.042Z,100469.73
2022-08-09T13:34:34.325Z,100464.78
2022-08-09T13:37:06.497Z,100463.34
2022-08-09T13:41:50.735Z,100463.34
2022-08-09T13:42:16.034Z,100462.67
2022-08-09T13:44:48.493Z,100465.13
2022-08-09T13:47:29.745Z,100463.34
2022-08-09T13:49:57.854Z,100459.19
2022-08-09T13:52:22.758Z,100460.45
2022-08-09T13:55:00.434Z,100459.11
2022-08-09T13:57:36.538Z,100462.30
2022-08-09T13:59:53.934Z,100454.98
2022-08-09T14:02:26.028Z,100454.98
2022-08-09T14:04:59.619Z,100456.22
2022-08-09T14:07:25.227Z,100451.19
2022-08-09T14:09:56.069Z,100442.89
2022-08-09T14:12:26.797Z,100442.84
2022-08-09T14:14:56.530Z,100444.37
2022-08-09T14:17:25.832Z,100449.15
2022-08-09T14:19:57.139Z,100445.12
2022-08-09T14:22:26.586Z,100446.84
2022-08-09T14:24:55.847Z,100450.45
2022-08-09T14:27:25.097Z,100443.46
2022-08-09T14:30:35.159Z,100443.72
2022-08-09T14:32:28.659Z,100441.94
2022-08-09T14:34:57.548Z,100445.53
2022-08-09T14:37:28.085Z,100445.89
2022-08-09T14:39:57.892Z,100450.93
2022-08-09T14:42:29.072Z,100444.14
2022-08-09T14:44:59.879Z,100444.11
2022-08-09T14:47:46.600Z,100441.70
2022-08-09T14:50:02.022Z,100449.25
2022-08-09T14:52:30.959Z,100445.42
2022-08-09T14:55:00.168Z,100442.22
2022-08-09T14:57:31.997Z,100449.25
2022-08-09T15:00:00.299Z,100447.16
2022-08-09T15:02:30.837Z,100443.04
2022-08-09T15:05:02.651Z,100444.55
2022-08-09T15:07:35.086Z,100439.11
2022-08-09T15:10:07.604Z,100435.55
2022-08-09T15:12:34.182Z,100439.02
2022-08-09T15:15:04.014Z,100436.84
2022-08-09T15:17:41.490Z,100436.84
2022-08-09T15:21:54.981Z,100437.47
2022-08-09T15:23:02.844Z,100437.47
2022-08-09T15:25:38.944Z,100435.07
2022-08-09T15:28:00.875Z,100435.07
2022-08-09T15:30:59.765Z,100431.84
2022-08-09T15:32:56.550Z,100431.50
2022-08-09T15:35:40.716Z,100435.17
2022-08-09T15:38:11.170Z,100428.80
2022-08-09T15:40:31.943Z,100432.02
2022-08-09T15:43:00.085Z,100431.32
2022-08-09T15:45:31.164Z,100424.06
2022-08-09T15:48:07.831Z,100424.95
2022-08-09T15:50:33.236Z,100428.94
2022-08-09T15:53:06.047Z,100424.64
2022-08-09T15:55:34.545Z,100428.48
2022-08-09T15:58:03.833Z,100429.28
2022-08-09T16:00:33.562Z,100429.28
2022-08-09T16:03:04.335Z,100433.85
2022-08-09T16:05:47.412Z,100429.62
2022-08-09T16:08:04.325Z,100422.63
2022-08-09T16:10:55.533Z,100425.70
2022-08-09T16:13:04.687Z,100425.70
2022-08-09T16:16:04.415Z,100429.98
2022-08-09T16:18:08.420Z,100432.97
2022-08-09T16:20:38.579Z,100432.97
2022-08-09T16:23:09.376Z,100432.14
2022-08-09T16:25:40.565Z,100432.14
2022-08-09T16:28:12.150Z,100422.02
2022-08-09T16:30:44.813Z,100422.02
2022-08-09T16:33:12.228Z,100427.42
2022-08-09T16:35:56.010Z,100430.59
2022-08-09T16:38:14.393Z,100430.59
2022-08-09T16:40:45.748Z,100430.59
2022-08-09T16:43:15.357Z,100434.56
2022-08-09T16:45:46.168Z,100434.92
2022-08-09T16:48:39.301Z,100434.92
2022-08-09T16:50:49.873Z,100437.25
2022-08-09T16:53:18.888Z,100444.87
2022-08-09T16:55:59.088Z,100442.72
2022-08-09T16:58:21.413Z,100442.72
2022-08-09T17:00:51.531Z,100447.91
2022-08-09T17:03:21.493Z,100440.28
2022-08-09T17:06:07.161Z,100440.84
2022-08-09T17:08:45.395Z,100448.59
2022-08-09T17:10:58.537Z,100449.59
2022-08-09T17:13:27.728Z,100449.59
2022-08-09T17:16:02.069Z,100451.82
2022-08-09T17:18:30.097Z,100452.22
2022-08-09T17:20:59.420Z,100452.22
2022-08-09T17:24:21.167Z,100446.70
2022-08-09T17:26:02.018Z,100458.46
2022-08-09T17:28:31.005Z,100452.02
2022-08-09T17:31:00.749Z,100452.02
2022-08-09T17:33:37.747Z,100451.67
2022-08-09T17:36:00.658Z,100451.67
2022-08-09T17:38:32.171Z,100454.91
2022-08-09T17:41:02.914Z,100458.18
2022-08-09T17:43:37.374Z,100452.78
2022-08-09T17:46:07.636Z,100454.73
2022-08-09T17:48:51.688Z,100454.58
2022-08-09T17:51:19.523Z,100462.09
2022-08-09T17:53:51.953Z,100461.98
2022-08-09T17:56:18.419Z,100459.56
2022-08-09T17:58:47.716Z,100463.62
2022-08-09T18:01:22.682Z,100463.62
2022-08-09T18:03:48.060Z,100465.69
2022-08-09T18:06:31.007Z,100459.70
2022-08-09T18:08:48.410Z,100459.22
2022-08-09T18:11:18.516Z,100466.51
2022-08-09T18:13:56.520Z,100466.05
2022-08-09T18:16:29.202Z,100464.80
2022-08-09T18:18:51.240Z,100466.51
2022-08-09T18:21:23.602Z,100466.51
2022-08-09T18:24:11.191Z,100476.20
2022-08-09T18:26:22.298Z,100476.20
2022-08-09T18:30:41.356Z,100473.34
2022-08-09T18:31:32.175Z,100468.84
2022-08-09T18:33:54.042Z,100468.84
2022-08-09T18:36:31.894Z,100470.74
2022-08-09T18:39:00.881Z,100468.61
2022-08-09T18:41:27.430Z,100472.48
2022-08-09T18:43:56.208Z,100478.03
2022-08-09T18:46:50.146Z,100471.30
2022-08-09T18:48:56.447Z,100471.30
2022-08-09T18:51:38.416Z,100466.12
2022-08-09T18:54:03.779Z,100465.70
2022-08-09T18:56:30.090Z,100461.30
2022-08-09T18:59:01.213Z,100466.08
2022-08-09T19:01:43.215Z,100465.94
2022-08-09T19:04:08.224Z,100465.72
2022-08-09T19:06:32.380Z,100465.16
2022-08-09T19:09:02.489Z,100461.94
2022-08-09T19:11:38.051Z,100463.14
2022-08-09T19:14:05.248Z,100463.14
2022-08-09T19:16:37.999Z,100464.45
2022-08-09T19:19:10.659Z,100462.54
2022-08-09T19:21:51.872Z,100462.54
2022-08-09T19:24:39.725Z,100457.97
2022-08-09T19:26:42.431Z,100462.00
2022-08-09T19:29:17.704Z,100462.00
2022-08-09T19:31:46.027Z,100461.50
2022-08-09T19:34:21.955Z,100450.58
2022-08-09T19:36:47.283Z,100455.58
2022-08-09T19:39:16.410Z,100455.58
2022-08-09T19:41:45.586Z,100450.87
2022-08-09T19:44:14.959Z,100450.87
2022-08-09T19:46:50.036Z,100453.17
2022-08-09T19:50:08.545Z,100447.77
2022-08-09T19:51:48.055Z,100457.88
2022-08-09T19:54:18.512Z,100453.23
2022-08-09T19:56:49.950Z,100455.40
2022-08-09T19:59:58.343Z,100443.82
2022-08-09T20:02:05.205Z,100453.77
2022-08-09T20:04:36.434Z,100453.77
2022-08-09T20:06:52.704Z,100449.90
2022-08-09T20:09:44.404Z,100452.59
2022-08-09T20:11:53.195Z,100452.09
2022-08-09T20:14:22.685Z,100453.38
2022-08-09T20:16:54.959Z,100453.38
2022-08-09T20:19:47.439Z,100453.19
2022-08-09T20:21:59.825Z,100451.56
2022-08-09T20:24:31.793Z,100445.19
2022-08-09T20:26:59.489Z,100441.30
2022-08-09T20:29:37.428Z,100443.87
2022-08-09T20:32:30.694Z,100441.53
2022-08-09T20:34:31.167Z,100441.53
2022-08-09T20:37:00.368Z,100443.33
2022-08-09T20:40:15.998Z,100445.34
2022-08-09T20:42:00.460Z,100447.05
2022-08-09T20:44:33.269Z,100448.15
2022-08-09T20:47:00.434Z,100444.02
2022-08-09T20:49:30.028Z,100438.92
2022-08-09T20:52:00.431Z,100437.69
2022-08-09T20:54:29.722Z,100437.69
2022-08-09T20:56:59.176Z,100439.22
2022-08-09T21:00:20.025Z,100434.66
2022-08-09T21:02:00.402Z,100433.45
2022-08-09T21:05:53.562Z,100433.45
2022-08-09T21:07:11.414Z,100430.19
2022-08-09T21:09:42.132Z,100426.09
2022-08-09T21:14:38.345Z,100429.38
2022-08-09T21:18:22.877Z,100428.75
2022-08-09T21:20:18.717Z,100439.33
2022-08-09T21:22:35.471Z,100428.05
2022-08-09T21:24:40.221Z,100423.09
2022-08-09T21:27:51.173Z,100425.84
2022-08-09T21:29:49.356Z,100428.25
2022-08-09T21:32:18.509Z,100420.81
2022-08-09T21:34:48.497Z,100425.52
2022-08-09T21:37:18.097Z,100423.63
2022-08-09T21:39:45.232Z,100421.41
2022-08-09T21:42:15.868Z,100421.60
2022-08-09T21:44:45.765Z,100418.66
2022-08-09T21:47:18.268Z,100420.61
2022-08-09T21:49:46.780Z,100419.24
2022-08-09T21:52:20.374Z,100414.00
2022-08-09T21:54:59.452Z,100403.63
2022-08-09T21:57:37.137Z,100416.99
2022-08-09T21:59:52.840Z,100418.15
2022-08-09T22:02:29.762Z,100414.58
2022-08-09T22:04:57.379Z,100414.58
2022-08-09T22:07:39.880Z,100416.13
2022-08-09T22:09:55.837Z,100415.12
2022-08-09T22:12:31.248Z,100415.12
2022-08-09T22:14:55.925Z,100411.34
2022-08-09T22:17:26.443Z,100404.77
2022-08-09T22:19:59.670Z,100404.77
2022-08-09T22:22:26.770Z,100411.84
2022-08-09T22:26:05.499Z,100413.31
2022-08-09T22:27:27.425Z,100400.01
2022-08-09T22:29:58.367Z,100406.41
2022-08-09T22:32:31.609Z,100402.84
2022-08-09T22:35:06.105Z,100401.73
2022-08-09T22:37:40.028Z,100397.55
2022-08-09T22:40:02.282Z,100397.63
2022-08-09T22:42:31.560Z,100395.92
2022-08-09T22:48:11.136Z,100392.64
2022-08-09T22:48:15.100Z,100392.34
2022-08-09T22:50:04.072Z,100391.53
2022-08-09T22:52:33.148Z,100391.53
2022-08-09T22:55:02.361Z,100392.30
2022-08-09T22:57:35.530Z,100386.56
2022-08-09T23:00:02.511Z,100379.45
2022-08-09T23:02:31.673Z,100379.45
2022-08-09T23:05:00.773Z,100380.21
2022-08-09T23:08:29.354Z,100374.92
2022-08-09T23:10:18.690Z,100370.41
2022-08-09T23:12:48.023Z,100370.41
2022-08-09T23:15:17.332Z,100378.36
2022-08-09T23:17:46.454Z,100368.42
2022-08-09T23:20:15.860Z,100371.00
2022-08-09T23:22:45.027Z,100371.00
2022-08-09T23:25:14.457Z,100365.15
2022-08-09T23:28:00.601Z,100356.73
2022-08-09T23:30:15.078Z,100367.00
2022-08-09T23:32:44.296Z,100367.00
2022-08-09T23:35:13.473Z,100360.70
2022-08-09T23:37:42.567Z,100358.05
2022-08-09T23:40:12.451Z,100362.36
2022-08-09T23:42:41.705Z,100358.36
2022-08-09T23:45:37.309Z,100359.48
2022-08-09T23:47:42.436Z,100353.92
2022-08-09T23:50:11.938Z,100357.66
2022-08-09T23:52:41.140Z,100356.80
2022-08-09T23:55:11.988Z,100355.59
2022-08-09T23:58:06.639Z,100360.41
